Time;durP1;ratioP1;P1;durP2;ratioP2;P2;SDS_P1;SDS_P2;PMS_P1;PMS_P2;Temp;Humidity;BMP_temperature;BMP_pressure;BME280_temperature;BME280_humidity;BME280_pressure;Samples;Min_cycle;Max_cycle;Signal;HPM_P1;HPM_P2
2021/03/14 10:50:30;;;;;;;1.10;0.90;;;19.40;49.80;;;;;;5239013;23;20708;-61
2021/03/14 10:53:16;;;;;;;1.95;0.90;;;19.30;50.00;;;;;;4871139;29;20187;-60
2021/03/14 10:55:42;;;;;;;3.38;1.30;;;19.30;50.00;;;;;;4854280;29;20169;-61
2021/03/14 10:58:12;;;;;;;2.13;1.10;;;19.40;49.90;;;;;;4878490;29;20652;-58
2021/03/14 11:00:42;;;;;;;2.63;0.70;;;19.50;49.60;;;;;;4877280;29;20573;-60
2021/03/14 11:03:12;;;;;;;2.08;1.23;;;19.60;49.40;;;;;;4842950;29;20230;-60
2021/03/14 11:05:42;;;;;;;2.08;0.88;;;19.70;49.30;;;;;;4860142;29;20174;-59
2021/03/14 11:08:07;;;;;;;3.85;1.10;;;19.80;49.20;;;;;;4860194;29;20222;-60
2021/03/14 11:10:33;;;;;;;1.67;0.75;;;19.90;49.00;;;;;;4869716;29;20241;-58
2021/03/14 11:12:59;;;;;;;1.42;1.05;;;20.00;49.00;;;;;;4875679;29;20590;-60
2021/03/14 11:15:33;;;;;;;1.17;0.82;;;20.00;49.00;;;;;;4861593;29;20543;-60
2021/03/14 11:18:02;;;;;;;0.98;0.75;;;20.00;49.00;;;;;;4861490;29;20213;-56
2021/03/14 11:20:27;;;;;;;2.70;1.00;;;20.00;49.00;;;;;;4873463;29;20178;-65
2021/03/14 11:22:55;;;;;;;3.17;0.90;;;20.10;49.00;;;;;;4860490;29;20664;-66
2021/03/14 11:25:20;;;;;;;2.65;1.17;;;20.00;49.30;;;;;;4876261;29;20174;-67
2021/03/14 11:27:47;;;;;;;2.33;0.85;;;19.90;49.50;;;;;;4877018;29;20233;-71
2021/03/14 11:30:14;;;;;;;3.80;1.05;;;19.80;49.70;;;;;;4865520;29;20174;-62
2021/03/14 11:32:40;;;;;;;3.55;0.93;;;19.70;49.90;;;;;;4881281;29;20181;-76
2021/03/14 11:35:06;;;;;;;2.30;1.08;;;19.60;49.90;;;;;;4850102;29;20236;-82
2021/03/14 11:37:32;;;;;;;2.15;0.95;;;19.60;50.00;;;;;;4864563;29;20196;-68
2021/03/14 11:39:57;;;;;;;2.05;0.55;;;19.50;50.70;;;;;;4881772;29;20240;-72
2021/03/14 11:42:23;;;;;;;2.15;0.88;;;19.60;50.90;;;;;;4881529;29;20606;-63
2021/03/14 11:44:48;;;;;;;2.65;0.70;;;19.60;50.10;;;;;;4881080;29;20189;-67
2021/03/14 11:47:14;;;;;;;2.72;0.82;;;19.80;49.90;;;;;;4865289;29;20213;-67
2021/03/14 11:49:39;;;;;;;2.88;1.02;;;19.70;49.90;;;;;;4864742;29;20280;-69
2021/03/14 11:52:05;;;;;;;3.40;0.98;;;19.70;49.80;;;;;;4849195;29;20205;-68
2021/03/14 11:54:31;;;;;;;3.25;0.82;;;19.60;50.00;;;;;;4881400;29;20264;-63
2021/03/14 11:56:56;;;;;;;4.35;1.17;;;19.60;50.10;;;;;;4864974;29;20185;-66
2021/03/14 11:59:22;;;;;;;3.83;1.02;;;19.50;50.30;;;;;;4848632;29;20720;-66
2021/03/14 12:01:49;;;;;;;3.88;1.17;;;19.50;50.50;;;;;;4857140;29;20200;-66
2021/03/14 12:04:16;;;;;;;3.33;0.85;;;19.50;50.40;;;;;;4880286;29;20185;-65
2021/03/14 12:06:42;;;;;;;3.45;0.88;;;19.50;50.30;;;;;;4863947;29;20201;-64
2021/03/14 12:09:07;;;;;;;1.95;1.00;;;19.50;50.30;;;;;;4881431;29;20653;-65
2021/03/14 12:11:36;;;;;;;3.35;1.00;;;19.60;50.30;;;;;;4879862;29;20180;-63
2021/03/14 12:14:02;;;;;;;1.60;0.70;;;19.60;50.30;;;;;;4863919;29;20192;-76
2021/03/14 12:16:27;;;;;;;4.75;0.80;;;19.50;50.30;;;;;;4879741;29;20173;-69
2021/03/14 12:18:53;;;;;;;2.03;0.93;;;19.40;50.30;;;;;;4879871;29;20177;-65
2021/03/14 12:21:19;;;;;;;4.28;0.90;;;19.30;50.50;;;;;;4880508;29;20181;-60
2021/03/14 12:23:44;;;;;;;4.70;1.13;;;19.30;50.60;;;;;;4881022;29;20196;-62
2021/03/14 12:26:11;;;;;;;4.00;1.00;;;19.30;50.70;;;;;;4880935;29;20252;-64
2021/03/14 12:28:36;;;;;;;2.88;1.08;;;19.30;50.60;;;;;;4880048;29;20225;-62
2021/03/14 12:31:02;;;;;;;2.20;0.98;;;19.30;50.60;;;;;;4879968;29;20182;-62
2021/03/14 12:33:27;;;;;;;2.33;1.02;;;19.40;50.60;;;;;;4880769;29;20217;-62
2021/03/14 12:35:53;;;;;;;3.08;0.70;;;19.40;50.60;;;;;;4880095;29;20173;-61
2021/03/14 12:38:19;;;;;;;4.38;0.82;;;19.40;50.60;;;;;;4880698;29;20173;-61
2021/03/14 12:40:47;;;;;;;2.88;1.20;;;19.30;50.60;;;;;;4878031;29;20649;-62
2021/03/14 12:43:13;;;;;;;3.25;0.90;;;19.30;50.80;;;;;;4879893;29;20237;-60
2021/03/14 12:45:40;;;;;;;2.50;0.80;;;19.30;50.90;;;;;;4880521;29;20197;-62
2021/03/14 12:48:05;;;;;;;1.55;1.00;;;19.30;51.00;;;;;;4863329;29;20252;-61
2021/03/14 12:50:31;;;;;;;4.70;0.90;;;19.30;50.80;;;;;;4892487;29;20251;-61
2021/03/14 12:52:57;;;;;;;3.38;1.00;;;19.40;50.70;;;;;;4899396;29;20228;-61
2021/03/14 12:55:22;;;;;;;1.60;0.63;;;19.40;50.60;;;;;;4898516;29;20650;-61
2021/03/14 12:57:48;;;;;;;1.58;0.75;;;19.40;50.70;;;;;;4899148;29;20172;-60
2021/03/14 13:00:14;;;;;;;4.28;1.00;;;19.30;50.80;;;;;;4899150;29;20240;-60
2021/03/14 13:02:40;;;;;;;4.00;1.00;;;19.30;50.70;;;;;;4897038;29;20181;-72
2021/03/14 13:05:06;;;;;;;2.67;1.00;;;19.30;50.70;;;;;;4898983;29;20648;-61
2021/03/14 13:07:32;;;;;;;2.53;0.85;;;19.30;50.80;;;;;;4898771;29;20204;-61
2021/03/14 13:09:58;;;;;;;2.67;0.70;;;19.20;50.90;;;;;;4897262;29;20624;-61
2021/03/14 13:12:24;;;;;;;1.65;0.82;;;19.20;50.90;;;;;;4898535;29;20191;-61
2021/03/14 13:14:49;;;;;;;1.52;1.00;;;19.30;50.90;;;;;;4881962;29;20176;-64
2021/03/14 13:17:15;;;;;;;6.90;1.55;;;19.50;50.70;;;;;;4898451;29;20176;-62
2021/03/14 13:19:40;;;;;;;0.80;0.80;;;19.50;50.60;;;;;;4898510;29;20707;-60
2021/03/14 13:22:06;;;;;;;3.45;1.17;;;19.40;50.50;;;;;;4882004;29;20247;-63
2021/03/14 13:24:32;;;;;;;5.25;1.05;;;19.40;50.60;;;;;;4897761;29;20640;-68
2021/03/14 13:26:57;;;;;;;0.73;0.60;;;19.40;50.70;;;;;;4898471;29;20631;-70
2021/03/14 13:29:23;;;;;;;11.02;1.33;;;19.30;50.70;;;;;;4898377;29;20239;-61
2021/03/14 13:31:48;;;;;;;3.20;1.10;;;19.30;50.80;;;;;;4897946;29;20176;-62
2021/03/14 13:34:14;;;;;;;3.67;0.90;;;19.20;50.70;;;;;;4881856;29;20177;-61
2021/03/14 13:36:40;;;;;;;1.73;0.77;;;19.20;51.30;;;;;;4898393;29;20184;-68
2021/03/14 13:39:05;;;;;;;3.08;0.98;;;19.20;50.60;;;;;;4897758;29;20173;-65
2021/03/14 13:41:32;;;;;;;1.88;1.27;;;19.20;50.60;;;;;;4898291;29;20181;-70
2021/03/14 13:43:57;;;;;;;1.67;0.90;;;19.40;50.30;;;;;;4897727;29;20177;-61
2021/03/14 13:46:23;;;;;;;1.42;0.85;;;19.60;50.10;;;;;;4898044;29;20629;-62
2021/03/14 13:48:48;;;;;;;1.95;0.90;;;19.50;50.20;;;;;;4898257;29;20263;-68
2021/03/14 13:51:14;;;;;;;1.45;0.70;;;19.40;50.20;;;;;;4879529;29;20596;-64
2021/03/14 13:53:40;;;;;;;2.25;0.93;;;19.40;50.20;;;;;;4862716;29;20594;-66
2021/03/14 13:56:06;;;;;;;2.58;0.82;;;19.40;50.30;;;;;;4862848;29;20617;-71
2021/03/14 13:58:32;;;;;;;2.83;0.80;;;19.30;50.20;;;;;;4878448;29;20217;-65
2021/03/14 14:00:58;;;;;;;3.03;0.98;;;19.20;50.30;;;;;;4883684;29;20644;-71
2021/03/14 14:03:24;;;;;;;2.33;0.93;;;19.20;50.30;;;;;;4897785;29;20193;-65
2021/03/14 14:05:49;;;;;;;1.45;0.90;;;19.40;50.10;;;;;;4897439;29;20232;-64
2021/03/14 14:08:15;;;;;;;2.72;0.80;;;19.60;50.00;;;;;;4898140;29;20208;-62
2021/03/14 14:10:40;;;;;;;1.52;0.70;;;19.80;49.80;;;;;;4881213;29;20633;-65
2021/03/14 14:13:06;;;;;;;2.60;1.02;;;19.90;49.60;;;;;;4897372;29;20247;-63
2021/03/14 14:15:33;;;;;;;1.52;0.77;;;19.90;49.60;;;;;;4897684;29;20183;-69
2021/03/14 14:17:58;;;;;;;2.40;0.80;;;20.10;49.50;;;;;;4886541;29;20537;-72
2021/03/14 14:20:24;;;;;;;2.17;0.73;;;20.00;49.30;;;;;;4896953;29;20169;-69
2021/03/14 14:22:49;;;;;;;2.30;0.85;;;19.80;49.60;;;;;;4897889;29;20176;-67
2021/03/14 14:25:15;;;;;;;2.05;0.90;;;19.70;50.70;;;;;;4897759;29;20183;-62
2021/03/14 14:27:41;;;;;;;1.85;0.82;;;19.60;50.30;;;;;;4896927;29;20682;-73
2021/03/14 14:30:07;;;;;;;1.95;0.90;;;19.50;50.50;;;;;;4897686;29;20263;-62
2021/03/14 14:32:33;;;;;;;1.13;0.70;;;19.40;50.70;;;;;;4880994;29;20207;-60
2021/03/14 14:34:58;;;;;;;1.83;1.15;;;19.40;51.40;;;;;;4896906;29;20632;-64
2021/03/14 14:37:24;;;;;;;2.78;0.80;;;19.30;50.80;;;;;;4897279;29;20180;-60
2021/03/14 14:39:49;;;;;;;1.35;0.95;;;19.60;50.50;;;;;;4897510;29;20188;-64
2021/03/14 14:42:16;;;;;;;5.93;1.23;;;19.70;50.30;;;;;;4897018;29;20671;-71
2021/03/14 14:44:42;;;;;;;0.90;0.68;;;19.60;50.30;;;;;;4880556;29;20271;-61
2021/03/14 14:47:08;;;;;;;1.58;0.85;;;19.50;50.50;;;;;;4897553;29;20311;-60
2021/03/14 14:49:34;;;;;;;1.05;0.68;;;19.50;50.40;;;;;;4901398;29;20303;-61
2021/03/14 14:52:00;;;;;;;3.00;0.90;;;19.40;50.70;;;;;;4916309;29;20180;-68
2021/03/14 14:54:26;;;;;;;0.73;0.68;;;19.30;50.80;;;;;;4915373;29;20247;-60
2021/03/14 14:56:51;;;;;;;1.40;0.90;;;19.20;50.90;;;;;;4916307;29;20184;-60
2021/03/14 14:59:17;;;;;;;2.10;0.80;;;19.20;51.10;;;;;;4916111;29;20180;-61
2021/03/14 15:01:43;;;;;;;1.70;0.90;;;19.10;51.10;;;;;;4904670;29;20184;-60
2021/03/14 15:04:09;;;;;;;1.60;0.70;;;19.10;51.20;;;;;;4882332;29;20704;-68
2021/03/14 15:06:34;;;;;;;2.20;0.88;;;19.10;51.10;;;;;;4897114;29;20275;-61
2021/03/14 15:09:00;;;;;;;1.38;0.73;;;19.10;51.10;;;;;;4890405;29;20196;-61
2021/03/14 15:11:26;;;;;;;2.83;0.82;;;19.00;51.20;;;;;;4893083;29;20184;-62
2021/03/14 15:13:52;;;;;;;0.93;0.60;;;19.00;51.10;;;;;;4892647;29;20640;-68
2021/03/14 15:16:17;;;;;;;1.83;0.70;;;19.00;51.20;;;;;;4909169;29;20179;-68
2021/03/14 15:18:43;;;;;;;3.53;1.00;;;18.90;51.10;;;;;;4910495;29;20671;-61
2021/03/14 15:21:08;;;;;;;1.52;0.70;;;18.90;51.20;;;;;;4883833;29;20172;-61
2021/03/14 15:23:34;;;;;;;1.73;0.85;;;18.90;51.30;;;;;;4899972;29;20224;-55
2021/03/14 15:26:00;;;;;;;2.08;1.08;;;18.80;51.40;;;;;;4900990;29;20176;-60
2021/03/14 15:28:26;;;;;;;2.90;1.08;;;18.80;51.40;;;;;;4883707;29;20249;-61
2021/03/14 15:30:51;;;;;;;3.33;0.95;;;18.70;51.40;;;;;;4883181;29;20231;-60
2021/03/14 15:33:17;;;;;;;5.22;1.05;;;18.70;51.20;;;;;;4883760;29;20194;-70
2021/03/14 15:35:43;;;;;;;3.17;0.95;;;18.80;51.20;;;;;;4900423;29;20176;-61
2021/03/14 15:38:08;;;;;;;2.20;1.13;;;18.80;51.70;;;;;;4900078;29;20264;-60
2021/03/14 15:40:34;;;;;;;1.98;0.90;;;18.80;51.10;;;;;;4900526;29;20228;-61
2021/03/14 15:43:00;;;;;;;2.47;0.80;;;18.80;51.00;;;;;;4883654;29;20195;-61
2021/03/14 15:45:25;;;;;;;1.95;0.90;;;18.80;51.10;;;;;;4899557;29;20687;-61
2021/03/14 15:47:52;;;;;;;1.85;1.05;;;18.80;51.70;;;;;;4900186;29;20205;-61
2021/03/14 15:50:18;;;;;;;1.55;0.90;;;18.70;51.00;;;;;;4900387;29;20240;-61
2021/03/14 15:52:43;;;;;;;1.52;0.82;;;18.70;51.00;;;;;;4899579;29;20652;-61
2021/03/14 15:55:10;;;;;;;1.98;0.90;;;18.60;51.60;;;;;;4883481;29;20180;-60
2021/03/14 15:57:35;;;;;;;1.65;1.00;;;18.70;51.00;;;;;;4899468;29;20192;-60
2021/03/14 16:00:02;;;;;;;1.17;0.80;;;18.70;51.70;;;;;;4900087;29;20233;-61
2021/03/14 16:02:27;;;;;;;1.50;0.90;;;18.70;51.00;;;;;;4899288;29;20465;-61
2021/03/14 16:04:53;;;;;;;2.08;1.00;;;18.70;50.90;;;;;;4899489;29;20172;-71
2021/03/14 16:07:18;;;;;;;2.90;0.90;;;18.80;51.00;;;;;;4900030;29;20291;-61
2021/03/14 16:09:44;;;;;;;1.13;0.60;;;18.80;50.70;;;;;;4900239;29;20184;-61
2021/03/14 16:12:13;;;;;;;1.17;0.85;;;18.90;50.70;;;;;;4899415;29;20204;-61
2021/03/14 16:14:43;;;;;;;1.92;0.75;;;19.00;50.70;;;;;;4882658;29;20181;-65
2021/03/14 16:17:08;;;;;;;2.03;0.90;;;18.90;50.50;;;;;;4903714;29;20267;-61
2021/03/14 16:19:34;;;;;;;1.88;0.80;;;19.10;50.30;;;;;;4900643;29;20267;-60
2021/03/14 16:21:59;;;;;;;2.15;1.10;;;19.10;50.20;;;;;;4916193;29;20176;-67
2021/03/14 16:24:26;;;;;;;1.67;1.05;;;19.30;50.20;;;;;;4880771;29;20253;-74
2021/03/14 16:26:51;;;;;;;2.05;0.60;;;19.30;49.90;;;;;;4885009;29;20180;-61
2021/03/14 16:29:17;;;;;;;3.67;0.80;;;19.40;49.90;;;;;;4899797;29;20231;-61
2021/03/14 16:31:42;;;;;;;1.27;0.75;;;19.50;50.40;;;;;;4899261;29;20654;-61
2021/03/14 16:34:08;;;;;;;2.13;0.77;;;19.60;49.60;;;;;;4882274;29;20185;-60
2021/03/14 16:36:39;;;;;;;1.95;0.73;;;19.60;49.60;;;;;;4913010;29;20184;-59
2021/03/14 16:39:06;;;;;;;1.20;0.73;;;19.70;49.40;;;;;;4917099;29;20609;-59
2021/03/14 16:41:32;;;;;;;0.77;0.52;;;19.70;49.30;;;;;;4916197;29;20643;-70
2021/03/14 16:43:57;;;;;;;2.60;0.98;;;19.80;49.40;;;;;;4918350;29;20175;-60
2021/03/14 16:46:23;;;;;;;2.80;1.13;;;19.90;49.40;;;;;;4918211;29;20275;-61
2021/03/14 16:48:48;;;;;;;0.70;0.57;;;19.80;49.20;;;;;;4917538;29;20208;-62
2021/03/14 16:51:14;;;;;;;1.92;0.80;;;19.90;49.10;;;;;;4918106;29;20231;-72
2021/03/14 16:53:39;;;;;;;3.33;1.02;;;20.00;48.90;;;;;;4918139;29;20595;-61
2021/03/14 16:56:05;;;;;;;2.17;0.88;;;19.90;48.90;;;;;;4917671;29;20172;-61
2021/03/14 16:58:31;;;;;;;2.63;0.93;;;19.90;48.90;;;;;;4918036;29;20176;-62
2021/03/14 17:00:56;;;;;;;3.70;0.90;;;19.80;49.00;;;;;;4917546;29;20534;-64
2021/03/14 17:03:22;;;;;;;6.45;2.00;;;19.80;49.80;;;;;;4917873;29;20179;-67
2021/03/14 17:05:47;;;;;;;8.63;2.55;;;19.60;49.00;;;;;;4917953;29;20223;-63
2021/03/14 17:08:15;;;;;;;13.85;3.78;;;19.60;49.10;;;;;;4916057;29;20254;-60
2021/03/14 17:10:40;;;;;;;17.17;5.72;;;19.50;49.20;;;;;;4917528;29;20179;-60
2021/03/14 17:13:06;;;;;;;14.32;5.55;;;19.40;50.00;;;;;;4916650;29;20184;-60
2021/03/14 17:15:32;;;;;;;14.07;6.10;;;19.30;49.40;;;;;;4916803;29;20600;-61
2021/03/14 17:17:57;;;;;;;14.13;5.13;;;19.30;49.60;;;;;;4917677;29;20188;-65
2021/03/14 17:20:23;;;;;;;18.35;5.25;;;19.20;49.60;;;;;;4917195;29;20207;-58
2021/03/14 17:22:49;;;;;;;11.60;5.30;;;19.20;49.80;;;;;;4915596;29;20172;-58
2021/03/14 17:25:15;;;;;;;10.23;4.95;;;19.20;50.00;;;;;;4917619;29;20642;-59
2021/03/14 17:27:41;;;;;;;18.75;5.80;;;19.20;50.00;;;;;;4903287;29;20234;-61
2021/03/14 17:30:08;;;;;;;23.00;7.22;;;19.20;50.00;;;;;;4881438;29;20260;-59
2021/03/14 17:32:33;;;;;;;20.27;6.70;;;19.10;50.10;;;;;;4881595;29;20256;-59
2021/03/14 17:34:59;;;;;;;15.60;7.03;;;19.20;50.20;;;;;;4898364;29;20200;-59
2021/03/14 17:37:24;;;;;;;15.90;6.75;;;19.10;50.20;;;;;;4897864;29;20168;-59
2021/03/14 17:39:51;;;;;;;17.25;7.55;;;19.00;50.20;;;;;;4898320;29;20236;-59
2021/03/14 17:42:16;;;;;;;22.05;7.20;;;19.00;50.30;;;;;;4898410;29;20200;-68
2021/03/14 17:44:42;;;;;;;16.13;7.50;;;18.90;50.40;;;;;;4897468;29;20214;-59
2021/03/14 17:47:07;;;;;;;16.92;7.38;;;18.90;50.50;;;;;;4898259;29;20212;-58
2021/03/14 17:49:33;;;;;;;17.60;7.38;;;18.90;50.50;;;;;;4881085;29;20224;-58
2021/03/14 17:51:59;;;;;;;17.70;8.15;;;18.90;50.50;;;;;;4897846;29;20184;-59
2021/03/14 17:54:24;;;;;;;19.77;7.00;;;18.90;50.50;;;;;;4898119;29;20180;-58
2021/03/14 17:56:50;;;;;;;16.13;6.75;;;18.90;50.30;;;;;;4898239;29;20648;-58
2021/03/14 17:59:15;;;;;;;18.58;7.53;;;19.00;50.30;;;;;;4880904;29;20268;-59
2021/03/14 18:01:41;;;;;;;18.90;8.05;;;19.00;50.30;;;;;;4897924;29;20703;-60
2021/03/14 18:04:07;;;;;;;18.35;7.57;;;18.90;50.30;;;;;;4897915;29;20172;-60
2021/03/14 18:06:32;;;;;;;14.63;7.30;;;18.90;50.50;;;;;;4880590;29;20233;-62
2021/03/14 18:08:58;;;;;;;19.98;7.15;;;18.80;50.40;;;;;;4897908;29;20216;-61
2021/03/14 18:11:24;;;;;;;15.73;7.55;;;18.80;50.40;;;;;;4897135;29;20656;-60
2021/03/14 18:13:50;;;;;;;18.38;6.50;;;18.80;50.60;;;;;;4881050;29;20648;-63
2021/03/14 18:16:15;;;;;;;18.35;7.20;;;18.80;50.60;;;;;;4881205;29;20183;-60
2021/03/14 18:18:41;;;;;;;17.63;6.93;;;18.80;50.60;;;;;;4897233;29;20180;-58
2021/03/14 18:21:07;;;;;;;13.50;6.47;;;18.80;50.60;;;;;;4897793;29;21040;-61
2021/03/14 18:23:32;;;;;;;14.43;6.47;;;18.80;50.40;;;;;;4897652;29;20699;-61
2021/03/14 18:25:58;;;;;;;16.10;6.38;;;18.80;50.40;;;;;;4880515;29;20180;-70
2021/03/14 18:28:23;;;;;;;15.35;6.25;;;18.90;50.50;;;;;;4916162;29;20264;-60
2021/03/14 18:30:50;;;;;;;15.77;6.68;;;18.90;51.10;;;;;;4916537;29;20718;-59
2021/03/14 18:33:16;;;;;;;14.70;6.70;;;19.00;50.30;;;;;;4914911;29;20248;-60
2021/03/14 18:35:41;;;;;;;14.40;6.40;;;18.90;50.30;;;;;;4916225;29;20565;-61
2021/03/14 18:38:07;;;;;;;11.18;6.43;;;19.00;50.30;;;;;;4915723;29;20218;-69
2021/03/14 18:40:32;;;;;;;16.13;7.28;;;19.00;50.20;;;;;;4915832;29;20184;-65
2021/03/14 18:42:58;;;;;;;17.00;6.00;;;19.10;50.80;;;;;;4916612;29;20671;-61
2021/03/14 18:45:23;;;;;;;10.85;5.25;;;19.10;50.10;;;;;;4916410;29;20228;-61
2021/03/14 18:47:49;;;;;;;12.63;6.10;;;19.20;50.00;;;;;;4915677;29;20207;-69
2021/03/14 18:50:15;;;;;;;12.95;6.07;;;19.30;49.90;;;;;;4916202;29;20318;-66
2021/03/14 18:52:41;;;;;;;12.23;5.65;;;19.30;49.60;;;;;;4914767;29;20218;-66
2021/03/14 18:55:07;;;;;;;10.70;5.70;;;19.40;49.60;;;;;;4915877;29;20577;-62
2021/03/14 18:57:33;;;;;;;11.85;6.18;;;19.50;49.60;;;;;;4914978;29;20178;-63
2021/03/14 18:59:58;;;;;;;11.52;5.90;;;19.50;50.00;;;;;;4915245;29;20168;-68
2021/03/14 19:02:24;;;;;;;12.40;5.43;;;19.60;49.50;;;;;;4915542;29;20194;-62
2021/03/14 19:04:49;;;;;;;12.77;5.68;;;19.70;49.40;;;;;;4915039;29;20180;-62
2021/03/14 19:07:15;;;;;;;11.65;5.28;;;19.70;49.50;;;;;;4916194;29;20196;-63
2021/03/14 19:09:41;;;;;;;14.57;5.80;;;19.70;50.00;;;;;;4915601;29;20180;-64
2021/03/14 19:12:07;;;;;;;9.95;4.82;;;19.70;50.10;;;;;;4916198;29;20203;-64
2021/03/14 19:14:32;;;;;;;18.52;5.75;;;19.70;49.50;;;;;;4915017;29;20290;-64
2021/03/14 19:16:58;;;;;;;11.25;4.88;;;19.70;49.60;;;;;;4916203;29;20304;-62
2021/03/14 19:19:23;;;;;;;14.88;4.95;;;19.60;49.70;;;;;;4914532;29;20658;-61
2021/03/14 19:21:49;;;;;;;18.40;5.75;;;19.60;50.00;;;;;;4915630;29;20207;-64
2021/03/14 19:24:15;;;;;;;12.55;4.75;;;19.60;50.00;;;;;;4916008;29;20184;-67
2021/03/14 19:26:40;;;;;;;9.63;4.57;;;19.50;50.00;;;;;;4909513;29;20184;-65
2021/03/14 19:29:06;;;;;;;9.88;4.32;;;19.40;50.20;;;;;;4864296;29;20220;-65
2021/03/14 19:31:32;;;;;;;9.93;4.28;;;19.40;50.30;;;;;;4897053;29;20376;-63
2021/03/14 19:33:57;;;;;;;7.82;4.22;;;19.30;50.40;;;;;;4880252;29;20584;-65
2021/03/14 19:36:23;;;;;;;11.20;4.75;;;19.30;50.50;;;;;;4879594;29;20165;-61
2021/03/14 19:38:48;;;;;;;8.25;4.13;;;19.20;50.60;;;;;;4896830;29;20177;-64
2021/03/14 19:41:14;;;;;;;8.80;4.45;;;19.20;50.60;;;;;;4897076;29;20177;-62
2021/03/14 19:43:40;;;;;;;10.30;4.43;;;19.10;50.70;;;;;;4879456;29;20236;-61
2021/03/14 19:46:05;;;;;;;7.28;4.13;;;19.10;50.80;;;;;;4897023;29;20200;-61
2021/03/14 19:48:31;;;;;;;9.02;4.07;;;19.10;50.80;;;;;;4879841;29;20231;-62
2021/03/14 19:50:57;;;;;;;9.48;4.13;;;19.10;50.70;;;;;;4882276;29;20216;-62
2021/03/14 19:53:23;;;;;;;9.82;4.32;;;19.10;50.70;;;;;;4883492;29;20188;-63
2021/03/14 19:55:48;;;;;;;10.60;4.28;;;19.10;50.70;;;;;;4900227;29;20220;-61
2021/03/14 19:58:14;;;;;;;9.20;3.65;;;19.10;50.70;;;;;;4883189;29;20241;-64
2021/03/14 20:00:39;;;;;;;11.55;4.78;;;19.10;50.70;;;;;;4883446;29;20183;-62
2021/03/14 20:03:05;;;;;;;7.43;3.95;;;19.00;50.70;;;;;;4883543;29;20183;-64
2021/03/14 20:05:31;;;;;;;7.75;3.28;;;19.00;50.80;;;;;;4882585;29;20236;-64
2021/03/14 20:07:58;;;;;;;8.95;4.07;;;19.00;51.00;;;;;;4883459;29;20545;-64
2021/03/14 20:10:23;;;;;;;7.40;3.60;;;18.90;51.00;;;;;;4883081;29;20259;-64
2021/03/14 20:12:49;;;;;;;6.18;3.30;;;19.00;51.00;;;;;;4882849;29;20251;-65
2021/03/14 20:15:15;;;;;;;7.90;3.75;;;19.00;50.90;;;;;;4900052;29;20188;-63
2021/03/14 20:17:41;;;;;;;8.73;3.80;;;19.00;50.90;;;;;;4899973;29;20663;-66
2021/03/14 20:20:08;;;;;;;11.70;3.85;;;19.10;50.90;;;;;;4882649;29;20208;-65
2021/03/14 20:22:34;;;;;;;10.30;3.90;;;19.10;50.80;;;;;;4899662;29;20208;-67
2021/03/14 20:25:00;;;;;;;8.57;3.85;;;19.00;50.80;;;;;;4882467;29;20295;-68
2021/03/14 20:27:26;;;;;;;6.35;3.67;;;19.00;50.90;;;;;;4910715;29;20719;-66
2021/03/14 20:29:51;;;;;;;9.38;3.85;;;19.00;51.00;;;;;;4917542;29;20186;-65
2021/03/14 20:32:17;;;;;;;7.93;3.78;;;19.00;51.00;;;;;;4918244;29;20258;-65
2021/03/14 20:34:43;;;;;;;8.05;3.38;;;18.90;51.10;;;;;;4917070;29;20219;-64
2021/03/14 20:37:08;;;;;;;6.85;3.78;;;18.90;51.10;;;;;;4917451;29;20232;-64
2021/03/14 20:39:34;;;;;;;6.38;3.03;;;18.90;51.10;;;;;;4917652;29;20663;-64
2021/03/14 20:41:59;;;;;;;5.88;3.45;;;18.90;51.10;;;;;;4917182;29;20180;-66
2021/03/14 20:44:25;;;;;;;5.47;3.25;;;19.00;51.10;;;;;;4915659;29;20298;-62
2021/03/14 20:46:51;;;;;;;9.15;3.50;;;19.00;51.00;;;;;;4917135;29;20180;-67
2021/03/14 20:49:16;;;;;;;7.15;3.42;;;19.00;51.00;;;;;;4916884;29;20218;-67
2021/03/14 20:51:42;;;;;;;7.32;3.38;;;19.00;51.00;;;;;;4916459;29;20191;-62
2021/03/14 20:54:08;;;;;;;7.90;3.38;;;18.90;51.10;;;;;;4918084;29;20227;-63
2021/03/14 20:56:33;;;;;;;6.40;2.92;;;18.90;51.20;;;;;;4916852;29;20200;-67
2021/03/14 20:58:59;;;;;;;8.50;3.47;;;18.90;51.30;;;;;;4916430;29;20579;-62
2021/03/14 21:01:24;;;;;;;6.88;3.08;;;18.90;51.30;;;;;;4916650;29;20191;-63
2021/03/14 21:03:50;;;;;;;5.78;3.40;;;18.80;51.30;;;;;;4917919;29;20176;-64
2021/03/14 21:06:16;;;;;;;5.40;2.90;;;18.80;51.40;;;;;;4917560;29;20547;-69
2021/03/14 21:08:41;;;;;;;6.20;2.65;;;18.90;51.40;;;;;;4916630;29;20543;-64
2021/03/14 21:11:10;;;;;;;5.43;2.72;;;18.90;51.20;;;;;;4917774;29;20175;-65
2021/03/14 21:13:36;;;;;;;6.53;3.17;;;19.00;51.10;;;;;;4915786;29;20548;-66
2021/03/14 21:16:01;;;;;;;7.78;2.95;;;18.90;51.20;;;;;;4916642;29;20636;-67
2021/03/14 21:18:27;;;;;;;7.15;2.95;;;18.90;51.20;;;;;;4917707;29;20278;-63
2021/03/14 21:20:52;;;;;;;5.65;3.03;;;18.90;51.30;;;;;;4917111;29;20180;-61
2021/03/14 21:23:18;;;;;;;4.85;2.88;;;18.90;51.30;;;;;;4917833;29;20660;-60
2021/03/14 21:25:44;;;;;;;5.50;2.75;;;18.80;51.20;;;;;;4917540;29;20198;-61
2021/03/14 21:28:09;;;;;;;6.57;2.50;;;18.80;51.20;;;;;;4898806;29;20567;-62
2021/03/14 21:30:35;;;;;;;6.97;3.05;;;18.80;51.20;;;;;;4881722;29;20228;-61
2021/03/14 21:33:00;;;;;;;5.50;2.83;;;18.80;51.20;;;;;;4881924;29;20251;-67
2021/03/14 21:35:26;;;;;;;6.78;2.80;;;18.80;51.10;;;;;;4881148;29;20173;-65
2021/03/14 21:37:52;;;;;;;6.05;3.22;;;18.80;51.10;;;;;;4898611;29;20632;-62
2021/03/14 21:40:18;;;;;;;6.20;2.95;;;18.80;51.00;;;;;;4898390;29;20681;-61
2021/03/14 21:42:43;;;;;;;5.63;2.95;;;18.70;51.00;;;;;;4865747;29;20313;-61
2021/03/14 21:45:11;;;;;;;5.28;2.60;;;18.70;51.00;;;;;;4881817;29;20180;-61
2021/03/14 21:47:37;;;;;;;3.92;2.50;;;18.70;51.10;;;;;;4897654;29;20216;-72
2021/03/14 21:50:04;;;;;;;5.95;2.70;;;18.70;51.10;;;;;;4898021;29;20232;-61
2021/03/14 21:52:30;;;;;;;5.40;2.95;;;18.60;51.70;;;;;;4898030;29;20184;-71
2021/03/14 21:54:55;;;;;;;6.18;2.67;;;18.60;51.80;;;;;;4880958;29;20304;-62
2021/03/14 21:57:21;;;;;;;5.10;3.25;;;18.60;51.20;;;;;;4865734;29;20188;-68
2021/03/14 21:59:49;;;;;;;6.28;2.92;;;18.50;51.20;;;;;;4898506;29;20164;-64
2021/03/14 22:02:16;;;;;;;6.18;2.80;;;18.50;51.20;;;;;;4881240;29;20228;-62
2021/03/14 22:04:42;;;;;;;6.28;2.90;;;18.50;51.20;;;;;;4881402;29;20699;-71
2021/03/14 22:07:08;;;;;;;4.85;2.55;;;18.40;51.20;;;;;;4881292;29;20636;-70
2021/03/14 22:09:34;;;;;;;4.05;2.35;;;18.40;51.20;;;;;;4897183;29;20188;-61
2021/03/14 22:11:59;;;;;;;6.28;3.25;;;18.40;51.30;;;;;;4897822;29;20176;-62
2021/03/14 22:14:25;;;;;;;5.38;2.58;;;18.40;52.00;;;;;;4880985;29;20176;-71
2021/03/14 22:16:50;;;;;;;3.92;2.45;;;18.30;51.40;;;;;;4897304;29;20192;-72
2021/03/14 22:19:16;;;;;;;6.07;2.83;;;18.30;51.30;;;;;;4898015;29;20177;-72
2021/03/14 22:21:41;;;;;;;4.70;2.58;;;18.30;51.40;;;;;;4897600;29;20179;-71
2021/03/14 22:24:08;;;;;;;4.97;2.97;;;18.30;51.40;;;;;;4896972;29;20273;-60
2021/03/14 22:26:34;;;;;;;4.63;2.38;;;18.30;51.40;;;;;;4880691;29;20652;-62
2021/03/14 22:29:00;;;;;;;6.07;2.42;;;18.30;51.40;;;;;;4896669;29;20207;-63
2021/03/14 22:31:25;;;;;;;3.25;2.30;;;18.20;51.30;;;;;;4895795;29;20172;-63
2021/03/14 22:33:51;;;;;;;5.60;3.08;;;18.20;51.30;;;;;;4897459;29;20173;-63
2021/03/14 22:36:16;;;;;;;4.88;3.10;;;18.20;51.40;;;;;;4880902;29;20251;-61
2021/03/14 22:38:42;;;;;;;4.13;2.20;;;18.20;51.30;;;;;;4896687;29;20184;-65
2021/03/14 22:41:08;;;;;;;6.43;3.38;;;18.20;51.40;;;;;;4896353;29;20211;-68
2021/03/14 22:43:33;;;;;;;6.40;2.80;;;18.20;51.60;;;;;;4880696;29;20183;-65
2021/03/14 22:45:59;;;;;;;6.68;2.90;;;18.20;51.50;;;;;;4895851;29;20181;-68
2021/03/14 22:48:24;;;;;;;3.60;2.42;;;18.10;51.50;;;;;;4880496;29;20236;-66
2021/03/14 22:50:50;;;;;;;4.40;2.45;;;18.10;51.50;;;;;;4896606;29;20307;-68
2021/03/14 22:53:15;;;;;;;4.47;2.15;;;18.10;51.50;;;;;;4896321;29;20191;-66
2021/03/14 22:55:41;;;;;;;5.30;2.50;;;18.10;51.50;;;;;;4896196;29;20171;-66
2021/03/14 22:58:07;;;;;;;3.92;2.28;;;18.00;51.50;;;;;;4895685;29;20999;-66
2021/03/14 23:00:36;;;;;;;3.47;2.40;;;18.00;51.50;;;;;;4880312;29;20212;-68
2021/03/14 23:03:02;;;;;;;5.45;2.45;;;18.00;52.20;;;;;;4896296;29;20172;-67
2021/03/14 23:05:27;;;;;;;4.53;2.45;;;18.00;51.50;;;;;;4895319;29;20180;-67
2021/03/14 23:07:53;;;;;;;3.60;2.83;;;18.00;51.60;;;;;;4896239;29;20676;-66
2021/03/14 23:10:21;;;;;;;3.53;2.22;;;18.00;51.50;;;;;;4897318;29;20187;-67
2021/03/14 23:12:50;;;;;;;3.13;2.30;;;17.90;51.60;;;;;;4896840;29;20188;-67
2021/03/14 23:15:35;;;;;;;5.22;2.35;;;17.90;51.70;;;;;;4896122;29;20207;-67
2021/03/14 23:18:01;;;;;;;3.85;2.10;;;17.90;51.60;;;;;;4897006;29;20188;-67
2021/03/14 23:20:29;;;;;;;4.40;2.50;;;17.80;51.60;;;;;;4895322;29;20175;-66
2021/03/14 23:22:55;;;;;;;5.15;2.67;;;17.80;51.60;;;;;;4880607;29;20177;-67
2021/03/14 23:25:29;;;;;;;4.47;2.25;;;17.80;51.60;;;;;;4898136;29;20244;-66
2021/03/14 23:27:55;;;;;;;5.15;2.90;;;17.80;51.70;;;;;;4899213;29;20208;-67